Time;durP1;ratioP1;P1;durP2;ratioP2;P2;SDS_P1;SDS_P2;PMS_P1;PMS_P2;Temp;Humidity;BMP_temperature;BMP_pressure;BME280_temperature;BME280_humidity;BME280_pressure;Samples;Min_cycle;Max_cycle;Signal;HPM_P1;HPM_P2
2022/05/13 00:00:53;;;;;;;3.13;1.50;;;16.90;64.70;;;;;;5013709;28;20030;-68
2022/05/13 00:03:18;;;;;;;4.60;1.80;;;16.80;64.60;;;;;;5014374;28;20032;-68
2022/05/13 00:05:44;;;;;;;3.25;1.70;;;16.80;64.80;;;;;;5014151;28;20034;-69
2022/05/13 00:08:09;;;;;;;3.22;2.20;;;16.80;64.90;;;;;;5012089;28;20048;-69
2022/05/13 00:10:35;;;;;;;3.80;2.17;;;16.80;64.90;;;;;;4996172;28;20085;-69
2022/05/13 00:13:00;;;;;;;4.32;2.00;;;16.70;64.80;;;;;;5005654;28;20120;-68
2022/05/13 00:15:29;;;;;;;2.83;1.70;;;16.70;65.30;;;;;;5014329;28;20068;-68
2022/05/13 00:17:55;;;;;;;3.60;2.22;;;16.70;65.30;;;;;;5012919;28;20041;-68
2022/05/13 00:20:22;;;;;;;2.97;1.85;;;16.70;65.20;;;;;;5004298;28;20038;-68
2022/05/13 00:22:53;;;;;;;4.93;2.00;;;16.70;65.50;;;;;;4994927;28;20030;-68
2022/05/13 00:25:22;;;;;;;4.55;1.80;;;16.70;66.40;;;;;;5001047;28;20030;-69
2022/05/13 00:27:48;;;;;;;3.63;1.98;;;16.70;65.90;;;;;;5012399;28;20034;-68
2022/05/13 00:30:15;;;;;;;3.17;2.08;;;16.70;65.70;;;;;;5012186;28;20029;-68
2022/05/13 00:32:41;;;;;;;3.72;1.77;;;16.60;66.00;;;;;;5012868;28;20116;-68
2022/05/13 00:35:07;;;;;;;4.70;2.00;;;16.60;65.90;;;;;;5012863;28;20117;-68
2022/05/13 00:37:33;;;;;;;3.95;2.10;;;16.60;66.00;;;;;;5012086;28;20540;-68
2022/05/13 00:39:58;;;;;;;3.88;2.22;;;16.50;66.10;;;;;;5013740;28;20027;-67
2022/05/13 00:42:24;;;;;;;3.30;1.90;;;16.50;66.20;;;;;;5000087;28;20036;-68
2022/05/13 00:44:50;;;;;;;3.20;1.95;;;16.50;66.30;;;;;;5011328;28;20493;-67
2022/05/13 00:47:18;;;;;;;3.72;2.03;;;16.40;66.70;;;;;;5000475;28;20478;-67
2022/05/13 00:49:43;;;;;;;3.92;2.30;;;16.40;67.10;;;;;;5011973;28;20042;-68
2022/05/13 00:52:10;;;;;;;3.40;1.95;;;16.40;66.70;;;;;;5012617;28;20192;-68
2022/05/13 00:54:38;;;;;;;3.45;2.20;;;16.40;66.80;;;;;;5011485;28;20037;-68
2022/05/13 00:57:04;;;;;;;3.92;2.20;;;16.40;67.20;;;;;;5010651;28;20041;-68
2022/05/13 00:59:33;;;;;;;4.45;2.25;;;16.40;67.10;;;;;;5012851;28;20034;-68
2022/05/13 01:01:58;;;;;;;2.80;2.20;;;16.30;67.30;;;;;;5012136;28;20599;-68
2022/05/13 01:04:26;;;;;;;4.40;1.92;;;16.30;67.60;;;;;;5006500;28;20105;-68
2022/05/13 01:06:54;;;;;;;5.95;2.53;;;16.30;67.60;;;;;;5002802;28;20489;-68
2022/05/13 01:09:21;;;;;;;4.28;2.38;;;16.30;67.70;;;;;;5012420;28;20049;-68
2022/05/13 01:11:52;;;;;;;3.42;2.30;;;16.30;67.80;;;;;;5004210;28;20035;-68
2022/05/13 01:14:24;;;;;;;4.25;2.45;;;16.30;68.00;;;;;;4998939;28;20021;-69
2022/05/13 01:19:34;;;;;;;6.00;2.80;;;16.20;67.90;;;;;;5001788;28;20048;-69
2022/05/13 01:22:12;;;;;;;3.53;2.17;;;16.20;68.00;;;;;;5006795;28;20512;-68
2022/05/13 01:24:38;;;;;;;5.15;2.30;;;16.10;68.40;;;;;;5010939;28;20049;-68
2022/05/13 01:27:04;;;;;;;4.88;2.28;;;16.10;68.70;;;;;;5010278;28;20397;-69
2022/05/13 01:29:29;;;;;;;3.53;2.35;;;16.10;68.70;;;;;;5004294;28;20062;-69
2022/05/13 01:31:55;;;;;;;5.80;2.33;;;16.10;68.90;;;;;;5000810;28;20055;-68
2022/05/13 01:34:20;;;;;;;4.07;2.63;;;16.10;68.90;;;;;;5010606;28;20061;-68
2022/05/13 01:36:46;;;;;;;8.10;2.38;;;16.00;68.70;;;;;;5010244;28;20037;-69
2022/05/13 01:39:11;;;;;;;4.93;2.63;;;16.00;68.80;;;;;;5011758;28;20026;-69
2022/05/13 01:41:37;;;;;;;4.20;2.80;;;16.00;68.90;;;;;;5010195;28;20021;-68
2022/05/13 01:44:03;;;;;;;3.50;2.47;;;16.00;69.00;;;;;;5011389;28;20084;-68
2022/05/13 01:46:28;;;;;;;4.38;2.45;;;16.00;69.20;;;;;;5004437;28;20105;-69
2022/05/13 01:48:55;;;;;;;2.75;2.10;;;15.90;69.60;;;;;;4992729;28;20026;-69
2022/05/13 01:51:21;;;;;;;4.32;2.38;;;15.90;69.80;;;;;;5005864;28;20026;-69
2022/05/13 01:53:46;;;;;;;3.88;2.50;;;15.90;70.00;;;;;;5012627;28;20129;-69
2022/05/13 01:56:12;;;;;;;3.78;2.13;;;15.80;70.10;;;;;;5010810;28;20066;-68
2022/05/13 01:58:37;;;;;;;6.45;2.30;;;15.90;70.30;;;;;;5011486;28;20607;-69
2022/05/13 02:01:05;;;;;;;4.75;2.60;;;15.80;70.40;;;;;;5005506;28;20038;-69
2022/05/13 02:03:46;;;;;;;5.28;2.80;;;15.80;70.80;;;;;;5010892;28;20557;-69
2022/05/13 02:06:23;;;;;;;2.92;2.22;;;15.80;70.80;;;;;;5010245;28;20033;-69
2022/05/13 02:08:51;;;;;;;4.40;2.63;;;15.80;71.00;;;;;;5011611;28;20127;-69
2022/05/13 02:11:18;;;;;;;3.55;2.75;;;15.70;71.20;;;;;;5009772;28;20034;-69
2022/05/13 02:13:44;;;;;;;4.65;2.58;;;15.70;71.40;;;;;;5011868;28;20587;-69
2022/05/13 02:16:10;;;;;;;5.88;3.00;;;15.70;71.60;;;;;;5010565;28;20071;-69
2022/05/13 02:18:36;;;;;;;4.32;2.53;;;15.70;71.80;;;;;;5006060;28;20033;-69
2022/05/13 02:21:02;;;;;;;5.82;2.67;;;15.70;71.90;;;;;;5010589;28;20092;-69
2022/05/13 02:23:27;;;;;;;5.53;2.75;;;15.70;72.10;;;;;;5011851;28;20057;-69
2022/05/13 02:26:02;;;;;;;6.22;3.20;;;15.60;72.30;;;;;;5003124;28;20036;-69
2022/05/13 02:28:30;;;;;;;3.55;2.50;;;15.60;72.70;;;;;;5012236;28;20058;-69
2022/05/13 02:30:56;;;;;;;5.13;3.17;;;15.60;72.70;;;;;;5010381;28;20037;-69
2022/05/13 02:33:22;;;;;;;4.35;2.88;;;15.60;72.70;;;;;;5010965;28;20037;-69
2022/05/13 02:35:47;;;;;;;3.65;2.83;;;15.60;72.90;;;;;;5004797;28;20461;-69
2022/05/13 02:38:14;;;;;;;4.30;2.92;;;15.50;73.10;;;;;;4998542;28;20049;-69
2022/05/13 02:43:24;;;;;;;4.80;2.92;;;15.50;73.40;;;;;;4993544;28;20560;-69
2022/05/13 02:45:50;;;;;;;4.75;2.75;;;15.50;73.50;;;;;;5002133;28;20611;-69
2022/05/13 02:48:15;;;;;;;4.88;3.47;;;15.50;73.60;;;;;;5011848;28;20041;-69
2022/05/13 02:50:41;;;;;;;6.10;3.58;;;15.40;73.80;;;;;;5005703;28;20018;-69
2022/05/13 02:53:07;;;;;;;6.90;2.67;;;15.40;74.00;;;;;;5011527;28;20037;-69
2022/05/13 02:55:32;;;;;;;6.95;3.03;;;15.40;74.40;;;;;;5009852;28;20409;-69
2022/05/13 02:57:57;;;;;;;6.50;3.58;;;15.40;74.60;;;;;;5011946;28;20022;-69
2022/05/13 03:00:23;;;;;;;6.68;3.50;;;15.40;74.50;;;;;;5004246;28;20486;-69
2022/05/13 03:02:49;;;;;;;4.85;3.30;;;15.40;74.70;;;;;;5011855;28;20033;-69
2022/05/13 03:05:14;;;;;;;7.28;3.60;;;15.40;74.80;;;;;;5009471;28;20037;-69
2022/05/13 03:07:40;;;;;;;5.65;3.50;;;15.40;75.00;;;;;;5009249;28;20030;-69
2022/05/13 03:10:08;;;;;;;6.10;4.13;;;15.40;75.00;;;;;;5013907;28;20037;-69
2022/05/13 03:12:33;;;;;;;6.30;3.83;;;15.30;75.10;;;;;;5008565;28;20048;-70
2022/05/13 03:14:58;;;;;;;5.32;3.85;;;15.30;75.20;;;;;;5014551;28;20030;-69
2022/05/13 03:17:24;;;;;;;5.50;3.42;;;15.30;75.60;;;;;;5014095;28;20014;-68
2022/05/13 03:19:50;;;;;;;5.53;3.60;;;15.30;75.50;;;;;;5013720;28;20122;-68
2022/05/13 03:22:16;;;;;;;5.78;3.80;;;15.30;75.60;;;;;;5014904;28;20037;-68
2022/05/13 03:24:41;;;;;;;8.57;3.60;;;15.30;76.00;;;;;;5004780;28;20034;-68
2022/05/13 03:27:07;;;;;;;5.57;3.72;;;15.30;76.00;;;;;;5015231;28;20116;-68
2022/05/13 03:29:33;;;;;;;7.63;4.15;;;15.30;76.20;;;;;;5013982;28;20021;-68
2022/05/13 03:31:58;;;;;;;5.43;4.03;;;15.30;76.20;;;;;;5015401;28;20485;-69
2022/05/13 03:34:26;;;;;;;6.00;4.40;;;15.30;76.40;;;;;;5014512;28;20061;-69
2022/05/13 03:36:51;;;;;;;6.53;3.78;;;15.30;76.50;;;;;;5015156;28;20030;-69
2022/05/13 03:39:17;;;;;;;6.82;4.40;;;15.30;76.70;;;;;;5007622;28;20101;-69
2022/05/13 03:41:43;;;;;;;7.68;4.60;;;15.20;76.80;;;;;;5013106;28;20477;-69
2022/05/13 03:44:09;;;;;;;8.40;4.03;;;15.30;76.80;;;;;;5013914;28;20026;-67
2022/05/13 03:46:35;;;;;;;6.10;3.60;;;15.30;76.90;;;;;;5013699;28;20152;-68
2022/05/13 03:49:01;;;;;;;4.47;3.50;;;15.30;77.10;;;;;;5015189;28;20030;-69
2022/05/13 03:51:27;;;;;;;5.60;3.65;;;15.30;77.10;;;;;;5012821;28;20044;-68
2022/05/13 03:53:53;;;;;;;4.75;3.60;;;15.30;77.10;;;;;;5014515;28;20030;-68
2022/05/13 03:56:18;;;;;;;6.35;4.30;;;15.30;77.40;;;;;;5012323;28;20026;-68
2022/05/13 03:58:44;;;;;;;6.90;3.88;;;15.30;78.20;;;;;;5014971;28;20755;-68
2022/05/13 04:01:09;;;;;;;5.65;3.58;;;15.30;77.80;;;;;;5012657;28;20025;-69
2022/05/13 04:03:35;;;;;;;6.63;4.15;;;15.30;77.70;;;;;;5013532;28;20487;-68
2022/05/13 04:08:56;;;;;;;5.28;3.67;;;15.30;77.60;;;;;;5003158;28;20104;-69
2022/05/13 04:11:24;;;;;;;6.00;3.42;;;15.30;77.70;;;;;;5009875;28;20042;-69
2022/05/13 04:16:33;;;;;;;4.97;3.67;;;15.30;77.80;;;;;;5012853;28;20026;-68
2022/05/13 04:18:59;;;;;;;5.72;4.45;;;15.40;77.80;;;;;;5014278;28;20017;-69
2022/05/13 04:21:28;;;;;;;5.22;3.92;;;15.40;77.90;;;;;;5012679;28;20512;-68
2022/05/13 04:23:58;;;;;;;6.25;4.32;;;15.40;78.00;;;;;;5014447;28;20037;-69
2022/05/13 04:26:24;;;;;;;5.28;3.53;;;15.40;78.10;;;;;;5004280;28;20058;-69
2022/05/13 04:28:51;;;;;;;5.60;4.10;;;15.40;77.90;;;;;;5013263;28;20045;-68
2022/05/13 04:31:20;;;;;;;5.82;3.90;;;15.50;78.00;;;;;;5012448;28;20061;-68
2022/05/13 04:33:46;;;;;;;7.05;3.83;;;15.50;77.80;;;;;;5013942;28;20497;-69
2022/05/13 04:36:12;;;;;;;6.07;4.25;;;15.50;77.70;;;;;;5012704;28;20034;-69
2022/05/13 04:38:38;;;;;;;6.40;4.60;;;15.50;77.70;;;;;;4995566;28;20477;-69
2022/05/13 04:43:49;;;;;;;6.15;4.43;;;15.50;77.50;;;;;;5012826;28;20116;-68
2022/05/13 04:46:16;;;;;;;5.63;4.35;;;15.60;77.50;;;;;;5002758;28;20030;-68
2022/05/13 04:48:41;;;;;;;7.70;3.58;;;15.60;77.40;;;;;;5010584;28;20057;-68
2022/05/13 04:51:07;;;;;;;8.85;4.10;;;15.70;77.60;;;;;;5009075;28;20072;-68
2022/05/13 04:53:35;;;;;;;6.07;4.13;;;15.70;77.70;;;;;;5013741;28;20485;-68
2022/05/13 04:56:03;;;;;;;5.45;3.88;;;15.70;77.90;;;;;;5009597;28;20022;-68
2022/05/13 04:58:28;;;;;;;7.38;4.15;;;15.70;77.80;;;;;;5011706;28;20045;-68
2022/05/13 05:00:56;;;;;;;6.35;4.03;;;15.80;77.90;;;;;;5011968;28;20034;-68
2022/05/13 05:03:24;;;;;;;5.50;4.03;;;15.80;77.90;;;;;;5012862;28;20061;-68
2022/05/13 05:05:50;;;;;;;8.32;4.30;;;15.80;77.70;;;;;;5012016;28;20527;-68
2022/05/13 05:08:17;;;;;;;8.45;4.35;;;15.90;78.00;;;;;;5013399;28;20077;-69
2022/05/13 05:10:44;;;;;;;5.10;4.18;;;15.90;77.70;;;;;;5011955;28;20018;-68
2022/05/13 05:13:17;;;;;;;12.05;5.22;;;15.90;77.60;;;;;;5006955;28;20041;-68
2022/05/13 05:15:45;;;;;;;6.13;4.10;;;15.90;77.40;;;;;;5006161;28;20022;-69
2022/05/13 05:18:14;;;;;;;6.57;4.65;;;16.00;77.50;;;;;;5012563;28;20033;-69
2022/05/13 05:20:41;;;;;;;5.75;4.28;;;16.00;77.40;;;;;;5002889;28;20029;-68
2022/05/13 05:23:07;;;;;;;5.30;4.47;;;16.10;77.30;;;;;;5013245;28;20053;-69
2022/05/13 05:25:33;;;;;;;7.45;4.50;;;16.10;77.10;;;;;;5011460;28;20038;-69
2022/05/13 05:27:59;;;;;;;6.45;4.25;;;16.20;76.90;;;;;;5013016;28;20030;-70
2022/05/13 05:30:25;;;;;;;7.75;4.88;;;16.20;76.80;;;;;;5009799;28;20367;-68
2022/05/13 05:32:51;;;;;;;5.15;4.50;;;16.30;76.80;;;;;;4993089;28;20116;-69
2022/05/13 05:35:20;;;;;;;5.28;3.97;;;16.30;76.70;;;;;;4993299;28;20030;-68
2022/05/13 05:37:46;;;;;;;7.13;4.88;;;16.40;76.60;;;;;;4993130;28;20023;-67
2022/05/13 05:40:12;;;;;;;6.47;4.57;;;16.40;76.60;;;;;;5007806;28;20381;-67
2022/05/13 05:42:39;;;;;;;11.55;4.57;;;16.40;76.60;;;;;;5009375;28;20037;-67
2022/05/13 05:45:07;;;;;;;6.35;4.57;;;16.50;76.50;;;;;;5005907;28;20034;-67
2022/05/13 05:47:33;;;;;;;8.43;4.65;;;16.60;76.40;;;;;;5008751;28;20049;-67
2022/05/13 05:49:59;;;;;;;6.32;4.05;;;16.60;76.40;;;;;;5004858;28;20030;-67
2022/05/13 05:52:24;;;;;;;8.70;4.30;;;16.70;76.30;;;;;;4992826;28;20129;-67
2022/05/13 05:57:34;;;;;;;7.50;4.00;;;16.80;76.00;;;;;;5012596;28;20029;-67
2022/05/13 06:00:04;;;;;;;7.50;4.43;;;16.90;76.00;;;;;;5010565;28;20053;-67
2022/05/13 06:02:29;;;;;;;5.85;3.72;;;16.90;75.60;;;;;;5011551;28;20388;-67
2022/05/13 06:04:55;;;;;;;8.52;3.92;;;17.00;75.60;;;;;;5008449;28;20031;-67
2022/05/13 06:07:20;;;;;;;5.85;3.55;;;17.10;75.70;;;;;;5002323;28;20036;-66
2022/05/13 06:09:46;;;;;;;8.32;4.70;;;17.20;75.60;;;;;;5009336;28;20049;-66
2022/05/13 06:12:13;;;;;;;11.18;4.05;;;17.20;75.70;;;;;;5003401;28;20120;-66
2022/05/13 06:14:40;;;;;;;7.97;5.65;;;17.30;75.80;;;;;;5008167;28;20038;-67
2022/05/13 06:17:06;;;;;;;6.18;4.00;;;17.40;75.50;;;;;;4994665;28;20038;-66
2022/05/13 06:19:32;;;;;;;5.78;4.07;;;17.50;75.80;;;;;;5007397;28;20109;-67
2022/05/13 06:21:57;;;;;;;8.60;4.65;;;17.70;75.50;;;;;;5005621;28;20117;-66
2022/05/13 06:24:23;;;;;;;6.00;4.28;;;17.70;75.30;;;;;;5002875;28;20157;-66
2022/05/13 06:26:50;;;;;;;7.75;4.47;;;17.80;75.10;;;;;;5006736;28;20071;-65
2022/05/13 06:29:21;;;;;;;7.90;4.68;;;17.90;74.70;;;;;;5014027;28;20553;-65
2022/05/13 06:31:46;;;;;;;7.72;5.07;;;18.00;74.40;;;;;;5008481;28;20053;-65
2022/05/13 06:34:14;;;;;;;8.65;4.88;;;18.00;74.50;;;;;;5011418;28;20041;-65
2022/05/13 06:36:40;;;;;;;7.30;4.15;;;18.10;74.30;;;;;;5008878;28;20090;-66
2022/05/13 06:39:07;;;;;;;8.77;4.50;;;18.20;74.40;;;;;;5015571;28;20056;-66
2022/05/13 06:41:37;;;;;;;7.28;4.22;;;18.30;74.20;;;;;;5009482;28;20481;-66
2022/05/13 06:44:04;;;;;;;10.13;4.60;;;18.30;73.90;;;;;;5002198;28;20235;-65
2022/05/13 06:46:30;;;;;;;7.53;4.60;;;18.40;73.40;;;;;;5006974;28;20014;-66
2022/05/13 06:48:58;;;;;;;8.25;4.82;;;18.50;72.30;;;;;;5011126;28;20573;-66
2022/05/13 06:51:23;;;;;;;6.80;4.32;;;18.50;71.90;;;;;;4996631;28;20030;-66
2022/05/13 06:53:49;;;;;;;7.40;4.55;;;18.70;71.30;;;;;;5003491;28;20042;-66
2022/05/13 06:56:14;;;;;;;5.65;3.70;;;18.80;71.30;;;;;;5010529;28;20413;-66
2022/05/13 06:58:40;;;;;;;7.90;4.57;;;18.90;71.00;;;;;;5005109;28;20026;-66
2022/05/13 07:01:05;;;;;;;6.28;4.50;;;19.00;70.30;;;;;;5002050;28;20014;-66
2022/05/13 07:03:31;;;;;;;7.85;4.75;;;19.10;69.60;;;;;;5010508;28;20033;-66
2022/05/13 07:05:56;;;;;;;5.90;4.13;;;19.20;69.40;;;;;;5004243;28;20029;-66
2022/05/13 07:08:21;;;;;;;7.20;5.25;;;19.30;68.70;;;;;;5009916;28;20104;-66
2022/05/13 07:10:47;;;;;;;5.93;4.15;;;19.40;68.20;;;;;;5009719;28;20037;-66
2022/05/13 07:13:15;;;;;;;7.15;4.30;;;19.50;68.30;;;;;;5005978;28;20049;-66
2022/05/13 07:15:42;;;;;;;6.57;4.70;;;19.50;67.60;;;;;;5000765;28;20025;-65
2022/05/13 07:18:08;;;;;;;6.07;4.85;;;19.50;67.40;;;;;;5008841;28;20092;-66
2022/05/13 07:20:33;;;;;;;7.88;4.63;;;19.70;67.70;;;;;;5002153;28;20026;-66
2022/05/13 07:22:59;;;;;;;8.18;4.38;;;19.70;67.30;;;;;;5004423;28;20026;-66
2022/05/13 07:25:26;;;;;;;5.75;4.47;;;19.90;67.20;;;;;;5009453;28;20524;-66
2022/05/13 07:27:51;;;;;;;7.50;4.47;;;20.00;67.60;;;;;;5005311;28;20041;-66
2022/05/13 07:30:17;;;;;;;7.15;4.70;;;20.20;67.00;;;;;;5003216;28;20397;-65
2022/05/13 07:32:42;;;;;;;8.98;4.82;;;20.30;66.00;;;;;;5006371;28;20042;-65
2022/05/13 07:35:08;;;;;;;7.88;4.82;;;20.30;65.50;;;;;;4995842;28;20018;-65
2022/05/13 07:37:35;;;;;;;7.10;4.30;;;20.40;64.80;;;;;;5015884;28;20021;-66
2022/05/13 07:42:49;;;;;;;5.68;4.55;;;20.50;64.20;;;;;;5002515;28;20092;-65
2022/05/13 07:45:15;;;;;;;8.25;4.10;;;20.50;64.30;;;;;;5007208;28;20030;-65
2022/05/13 07:47:42;;;;;;;5.50;4.38;;;20.60;64.40;;;;;;5001965;28;20478;-66
2022/05/13 07:50:10;;;;;;;6.45;4.35;;;20.60;64.20;;;;;;5004611;28;20038;-65
2022/05/13 07:52:37;;;;;;;7.20;4.95;;;20.60;64.40;;;;;;5008918;28;20053;-65
2022/05/13 07:55:03;;;;;;;6.95;4.47;;;20.70;64.20;;;;;;5007574;28;20030;-65
2022/05/13 07:57:29;;;;;;;7.25;4.85;;;20.70;63.90;;;;;;5017248;28;20033;-65
2022/05/13 08:02:39;;;;;;;7.30;5.28;;;20.60;63.20;;;;;;5019489;28;20537;-65
2022/05/13 08:05:05;;;;;;;7.07;5.22;;;20.70;63.00;;;;;;5013000;28;20113;-65
2022/05/13 08:07:30;;;;;;;8.70;5.45;;;20.70;63.40;;;;;;5019604;28;20065;-65
2022/05/13 08:09:56;;;;;;;9.38;5.13;;;20.70;63.20;;;;;;5025154;28;20077;-65
2022/05/13 08:12:22;;;;;;;8.65;5.53;;;20.80;63.30;;;;;;5012893;28;20023;-65
2022/05/13 08:14:47;;;;;;;10.00;6.03;;;20.80;63.60;;;;;;4997323;28;20022;-65
2022/05/13 08:17:12;;;;;;;10.93;5.65;;;20.80;63.30;;;;;;5000675;28;20026;-65
2022/05/13 08:19:38;;;;;;;6.60;5.30;;;20.70;62.70;;;;;;5014739;28;20113;-65
2022/05/13 08:22:05;;;;;;;7.70;5.70;;;20.60;62.80;;;;;;5014487;28;20029;-65
2022/05/13 08:24:30;;;;;;;7.60;5.07;;;20.60;62.70;;;;;;5001949;28;20077;-65
2022/05/13 08:26:56;;;;;;;8.10;5.68;;;20.50;62.90;;;;;;5010928;28;20034;-66
2022/05/13 08:29:24;;;;;;;7.63;5.20;;;20.40;63.00;;;;;;5012580;28;20370;-65
2022/05/13 08:31:50;;;;;;;8.93;5.72;;;20.30;63.00;;;;;;5012477;28;20034;-65
2022/05/13 08:34:16;;;;;;;7.68;5.88;;;20.30;63.30;;;;;;5014181;28;20026;-65
2022/05/13 08:36:42;;;;;;;8.70;5.80;;;20.30;63.40;;;;;;5011968;28;20371;-65
2022/05/13 08:39:10;;;;;;;15.20;6.15;;;20.20;63.20;;;;;;5006303;28;20022;-65
2022/05/13 08:42:07;;;;;;;7.45;5.55;;;20.10;63.30;;;;;;5007578;28;20146;-65
2022/05/13 08:44:33;;;;;;;9.05;5.43;;;20.00;63.30;;;;;;4999848;28;20439;-65
2022/05/13 08:47:13;;;;;;;7.63;5.85;;;20.00;63.70;;;;;;5009781;28;20036;-65
2022/05/13 08:49:53;;;;;;;7.82;5.50;;;19.90;63.60;;;;;;5010994;28;20452;-65
2022/05/13 08:53:08;;;;;;;8.40;5.88;;;19.80;64.10;;;;;;5010070;28;20065;-65
2022/05/13 08:55:57;;;;;;;7.38;5.43;;;19.70;64.20;;;;;;5005044;28;20425;-65
2022/05/13 08:58:31;;;;;;;7.78;5.53;;;19.70;64.40;;;;;;5017009;28;20041;-65
2022/05/13 09:00:59;;;;;;;10.00;5.97;;;19.70;64.90;;;;;;5011206;28;20493;-65
2022/05/13 09:03:36;;;;;;;8.98;5.90;;;19.70;65.20;;;;;;5016033;28;20034;-65
2022/05/13 09:06:39;;;;;;;7.93;5.95;;;19.70;65.30;;;;;;5002304;28;20540;-65
2022/05/13 09:09:07;;;;;;;8.48;5.85;;;19.80;65.60;;;;;;5018904;28;20060;-65
2022/05/13 09:11:50;;;;;;;7.85;5.50;;;19.80;65.30;;;;;;5011199;28;20548;-65
2022/05/13 09:14:18;;;;;;;8.10;5.22;;;19.90;65.30;;;;;;5019580;28;20139;-65
2022/05/13 09:17:09;;;;;;;10.48;5.93;;;20.10;65.60;;;;;;5033466;28;20491;-65
2022/05/13 09:19:35;;;;;;;8.20;5.28;;;20.30;65.60;;;;;;5020383;28;20021;-65
2022/05/13 09:22:11;;;;;;;6.93;4.65;;;20.40;64.40;;;;;;5018204;28;20109;-65
2022/05/13 09:24:37;;;;;;;7.75;4.28;;;20.60;64.10;;;;;;5011945;28;20033;-65
2022/05/13 09:27:02;;;;;;;7.45;4.18;;;20.70;63.00;;;;;;5020962;28;20392;-65
2022/05/13 09:29:42;;;;;;;8.88;4.50;;;20.80;63.00;;;;;;5012867;28;20026;-65
2022/05/13 09:32:14;;;;;;;10.20;4.43;;;20.80;62.30;;;;;;5020647;28;20037;-65
2022/05/13 09:34:49;;;;;;;14.32;8.50;;;20.90;61.90;;;;;;5032273;28;20036;-65
2022/05/13 09:37:23;;;;;;;8.40;4.63;;;21.00;61.00;;;;;;5002181;28;20026;-65
2022/05/13 09:39:51;;;;;;;;;;;21.10;60.20;;;;;;5013413;28;20113;-65
2022/05/13 09:42:19;;;;;;;9.20;3.40;;;21.10;60.70;;;;;;5003521;28;19941;-65
2022/05/13 09:44:46;;;;;;;9.95;3.28;;;21.20;59.60;;;;;;4994566;28;20065;-65
2022/05/13 09:47:17;;;;;;;6.30;2.70;;;21.30;59.70;;;;;;5006539;28;20029;-66
2022/05/13 09:49:47;;;;;;;6.72;3.03;;;21.30;58.80;;;;;;5005865;28;20034;-66
2022/05/13 09:52:28;;;;;;;12.85;7.30;;;21.30;58.60;;;;;;5011208;28;20045;-65
2022/05/13 09:54:55;;;;;;;6.40;3.60;;;21.30;58.50;;;;;;4998570;28;20038;-66
2022/05/13 09:57:34;;;;;;;7.47;4.35;;;21.30;58.30;;;;;;5016868;28;20029;-64
2022/05/13 10:00:02;;;;;;;5.25;3.28;;;21.30;58.00;;;;;;5000826;28;20026;-66
2022/05/13 10:02:28;;;;;;;5.38;2.80;;;21.40;58.50;;;;;;5019668;28;20087;-66
2022/05/13 10:05:09;;;;;;;9.20;2.70;;;21.30;58.60;;;;;;4995185;28;20022;-67
2022/05/13 10:07:41;;;;;;;6.85;3.15;;;21.40;58.80;;;;;;5010432;28;20049;-66
2022/05/13 10:15:39;;;;;;;7.60;3.03;;;21.60;57.70;;;;;;5003924;28;20085;-66
2022/05/13 10:18:26;;;;;;;5.18;3.25;;;21.60;57.40;;;;;;4992901;28;20038;-66
2022/05/13 10:21:01;;;;;;;5.75;3.13;;;21.70;57.60;;;;;;5002145;28;20097;-65
2022/05/13 10:23:38;;;;;;;7.32;3.05;;;21.70;57.30;;;;;;5021782;28;20037;-66
2022/05/13 10:26:08;;;;;;;6.20;3.08;;;21.70;57.50;;;;;;5003833;28;20030;-66
2022/05/13 10:28:45;;;;;;;7.82;3.03;;;21.80;58.20;;;;;;5011338;28;20091;-65
2022/05/13 10:31:21;;;;;;;5.43;2.72;;;21.90;57.90;;;;;;5008558;28;20501;-65
2022/05/13 10:34:00;;;;;;;8.10;3.90;;;21.90;57.60;;;;;;5011295;28;20038;-66
2022/05/13 10:36:40;;;;;;;5.22;3.05;;;22.00;57.80;;;;;;5001734;28;20042;-65
2022/05/13 10:39:23;;;;;;;11.63;3.92;;;21.90;57.30;;;;;;4992515;28;20120;-65
2022/05/13 10:41:55;;;;;;;7.32;3.05;;;21.80;57.40;;;;;;5011935;28;20052;-65
2022/05/13 10:44:38;;;;;;;6.38;3.28;;;21.70;57.40;;;;;;5028082;28;20029;-65
2022/05/13 10:47:20;;;;;;;6.80;3.15;;;21.60;57.40;;;;;;5003040;28;20029;-65
2022/05/13 10:49:46;;;;;;;7.22;3.38;;;21.50;57.70;;;;;;5005567;28;20042;-64
2022/05/13 10:52:34;;;;;;;7.93;3.47;;;21.30;58.20;;;;;;5015797;28;20401;-65
2022/05/13 10:55:28;;;;;;;5.95;2.92;;;21.20;58.60;;;;;;5013237;28;20038;-64
2022/05/13 10:58:26;;;;;;;5.15;3.13;;;21.10;58.60;;;;;;5005495;28;20038;-65
2022/05/13 11:01:22;;;;;;;5.47;3.25;;;21.10;58.70;;;;;;5000510;28;20035;-65
2022/05/13 11:04:15;;;;;;;6.28;2.72;;;21.10;58.10;;;;;;4996730;28;20030;-65
2022/05/13 11:07:00;;;;;;;5.88;2.80;;;21.00;57.60;;;;;;5014135;28;20090;-65
2022/05/13 11:09:45;;;;;;;5.43;1.95;;;21.00;57.80;;;;;;4999039;28;20081;-65
2022/05/13 11:13:02;;;;;;;6.53;2.88;;;21.10;57.40;;;;;;5012223;28;20041;-65
2022/05/13 11:15:47;;;;;;;5.20;2.22;;;21.10;57.40;;;;;;4989486;28;20076;-65
2022/05/13 11:18:37;;;;;;;4.18;2.20;;;21.10;57.60;;;;;;4993933;28;20037;-65
2022/05/13 11:21:43;;;;;;;5.95;2.42;;;21.20;57.30;;;;;;5006020;28;20115;-65
2022/05/13 11:27:50;;;;;;;5.38;2.13;;;21.20;56.60;;;;;;5001238;28;20108;-65
2022/05/13 11:30:32;;;;;;;5.97;2.28;;;21.20;55.80;;;;;;5014500;28;20044;-65
2022/05/13 11:33:11;;;;;;;5.53;2.08;;;21.10;55.80;;;;;;5006597;28;20078;-65
2022/05/13 11:35:40;;;;;;;3.83;1.88;;;21.10;56.80;;;;;;5006925;28;20037;-65
2022/05/13 11:38:08;;;;;;;4.60;2.33;;;21.10;55.70;;;;;;5005705;28;20390;-64
2022/05/13 11:40:47;;;;;;;4.13;2.17;;;21.10;56.50;;;;;;5005116;28;20026;-65
2022/05/13 11:43:26;;;;;;;4.78;2.33;;;21.30;55.20;;;;;;5005747;28;20032;-66
2022/05/13 11:46:25;;;;;;;4.88;2.10;;;21.40;54.90;;;;;;5010966;28;20030;-65
2022/05/13 11:48:54;;;;;;;5.75;2.20;;;21.50;54.90;;;;;;5004301;28;20029;-65
2022/05/13 11:51:30;;;;;;;5.20;2.55;;;21.50;54.40;;;;;;5001033;28;20117;-65
2022/05/13 11:53:59;;;;;;;5.53;2.60;;;21.50;53.50;;;;;;5011728;28;20667;-66
2022/05/13 11:56:31;;;;;;;5.35;2.70;;;21.50;53.70;;;;;;5009453;28;20089;-65
2022/05/13 11:59:01;;;;;;;5.13;2.53;;;21.50;53.80;;;;;;5011349;28;20123;-66
2022/05/13 12:01:55;;;;;;;7.80;3.20;;;21.60;53.80;;;;;;5001336;28;20030;-65
2022/05/13 12:04:21;;;;;;;7.20;3.33;;;21.60;53.80;;;;;;5009972;28;20061;-65
2022/05/13 12:06:49;;;;;;;6.22;2.35;;;21.60;53.80;;;;;;4996728;28;20112;-65
2022/05/13 12:09:26;;;;;;;7.15;2.70;;;21.70;54.30;;;;;;5003748;28;20042;-65
2022/05/13 12:12:23;;;;;;;5.65;2.60;;;21.70;53.30;;;;;;4994903;28;20042;-65
2022/05/13 12:15:03;;;;;;;6.90;2.90;;;21.70;53.50;;;;;;5007507;28;20048;-65
2022/05/13 12:17:56;;;;;;;5.93;2.33;;;21.70;53.40;;;;;;5012172;28;20029;-66
2022/05/13 12:20:52;;;;;;;4.40;2.28;;;21.70;52.50;;;;;;5003798;28;20063;-66
2022/05/13 12:23:26;;;;;;;7.13;2.50;;;21.70;52.10;;;;;;4997459;28;20034;-65
2022/05/13 12:26:04;;;;;;;3.83;2.30;;;21.60;52.30;;;;;;5009530;28;20306;-66
2022/05/13 12:28:38;;;;;;;5.13;2.75;;;21.60;52.80;;;;;;5008786;28;20044;-66
2022/05/13 12:31:29;;;;;;;5.55;2.30;;;21.70;52.40;;;;;;5007049;28;20030;-65
2022/05/13 12:40:00;;;;;;;4.40;2.20;;;21.80;51.70;;;;;;5001250;28;20393;-65
2022/05/13 12:42:44;;;;;;;5.10;1.95;;;21.80;51.80;;;;;;5002680;28;20498;-66
2022/05/13 12:45:39;;;;;;;3.70;2.03;;;21.80;51.50;;;;;;4997869;28;20058;-66
2022/05/13 12:48:06;;;;;;;4.80;2.10;;;21.70;51.60;;;;;;4996567;28;20037;-65
2022/05/13 12:50:53;;;;;;;5.75;2.65;;;21.60;51.90;;;;;;5008662;28;20042;-65
2022/05/13 12:53:28;;;;;;;7.00;2.30;;;21.60;52.30;;;;;;5010680;28;20037;-65
2022/05/13 12:55:59;;;;;;;4.95;2.25;;;21.70;52.40;;;;;;5013203;28;20030;-65
2022/05/13 12:58:28;;;;;;;7.53;2.45;;;21.60;52.20;;;;;;4996605;28;20495;-65
2022/05/13 13:00:54;;;;;;;4.40;1.90;;;21.50;52.30;;;;;;5006000;28;20038;-65
2022/05/13 13:03:22;;;;;;;5.97;2.20;;;21.50;52.10;;;;;;4996685;28;20454;-65
2022/05/13 13:06:00;;;;;;;4.13;2.25;;;21.40;52.00;;;;;;5007692;28;20053;-65
2022/05/13 13:08:37;;;;;;;5.80;2.22;;;21.30;52.00;;;;;;5011145;28;20049;-65
2022/05/13 13:11:29;;;;;;;5.10;2.70;;;21.20;52.00;;;;;;5011443;28;20033;-65
2022/05/13 13:14:14;;;;;;;5.55;2.70;;;21.10;52.20;;;;;;5004343;28;20069;-65
2022/05/13 13:16:59;;;;;;;7.68;2.40;;;20.90;52.60;;;;;;5010677;28;20116;-65
2022/05/13 13:19:27;;;;;;;7.63;2.77;;;20.80;52.50;;;;;;5010589;28;20038;-65
2022/05/13 13:21:58;;;;;;;6.65;2.40;;;20.70;53.30;;;;;;5015924;28;20331;-67
2022/05/13 13:24:33;;;;;;;5.93;2.45;;;20.60;53.20;;;;;;5011586;28;20491;-67
2022/05/13 13:26:59;;;;;;;4.72;2.38;;;20.40;53.40;;;;;;4997653;28;20034;-67
2022/05/13 13:29:31;;;;;;;7.95;3.10;;;20.30;53.90;;;;;;5013034;28;20380;-68
2022/05/13 13:32:02;;;;;;;8.45;2.92;;;20.20;54.20;;;;;;5006197;28;20505;-70
2022/05/13 13:34:33;;;;;;;7.53;3.63;;;20.10;54.70;;;;;;5001526;28;20026;-69
2022/05/13 13:36:59;;;;;;;5.95;2.72;;;20.10;54.80;;;;;;5002376;28;20033;-68
2022/05/13 13:39:29;;;;;;;4.53;2.30;;;20.30;54.90;;;;;;5014426;28;20030;-68